Terminal Aerodrome Forecast
Issued by NWS

Home | Current Version | Previous Version | Text Only | Print | Product List | Glossary On
Versions: 1 2 3 4 5 6 7 8 9 10 11 12 13 14 15 16 17 18 19 20
421
FTUS44 KBMX 180816 AAA
TAFTOI
TAF AMD
KTOI 180816Z 1808/1906 00000KT 2SM BR OVC004
      TEMPO 1808/1812 1/4SM FG OVC002
     FM181500 27005KT P6SM OVC015=

USA.gov is the U.S. government's official web portal to all federal, state and local government web resources and services.